createdAt,value
2016-12-18T00:00:02.684Z,4.07
2016-12-18T00:05:02.994Z,4.08
2016-12-18T00:10:02.334Z,4.09
2016-12-18T00:15:02.694Z,4.08
2016-12-18T00:20:03.135Z,4.12
2016-12-18T00:25:02.463Z,4.12
2016-12-18T00:30:02.847Z,4.12
2016-12-18T00:35:02.207Z,4.14
2016-12-18T00:40:02.577Z,4.16
2016-12-18T00:45:02.899Z,4.17
2016-12-18T00:50:02.292Z,4.17
2016-12-18T00:55:02.651Z,4.17
2016-12-18T01:00:03.011Z,4.19
2016-12-18T01:05:02.344Z,4.18
2016-12-18T01:10:02.674Z,4.2
2016-12-18T01:15:03.033Z,4.2
2016-12-18T01:20:02.484Z,4.22
2016-12-18T01:25:02.792Z,4.23
2016-12-18T01:30:03.163Z,4.24
2016-12-18T01:35:02.489Z,4.24
2016-12-18T01:40:02.863Z,4.28
2016-12-18T01:45:02.238Z,4.29
2016-12-18T01:50:02.588Z,4.34
2016-12-18T01:55:02.919Z,4.36
2016-12-18T02:00:02.305Z,4.34
2016-12-18T02:05:02.659Z,4.36
2016-12-18T02:10:03.013Z,4.39
2016-12-18T02:15:02.393Z,4.45
2016-12-18T02:20:02.846Z,4.46
2016-12-18T02:25:02.185Z,4.46
2016-12-18T02:30:02.506Z,4.48
2016-12-18T02:35:02.863Z,4.54
2016-12-18T02:40:02.203Z,4.61
2016-12-18T02:45:02.533Z,4.72
2016-12-18T02:50:02.865Z,4.82
2016-12-18T02:55:02.203Z,4.91
2016-12-18T03:00:02.563Z,4.95
2016-12-18T03:05:02.890Z,5.06
2016-12-18T03:10:02.226Z,5.16
2016-12-18T03:15:02.570Z,5.22
2016-12-18T03:20:03.010Z,5.26
2016-12-18T03:25:02.348Z,5.23
2016-12-18T03:30:02.723Z,5.22
2016-12-18T03:35:03.034Z,5.21
2016-12-18T03:40:02.389Z,5.2
2016-12-18T03:45:02.704Z,5.18
2016-12-18T03:50:03.091Z,5.18
2016-12-18T03:55:02.428Z,5.18
2016-12-18T04:00:02.843Z,5.18
2016-12-18T04:05:02.205Z,5.18
2016-12-18T04:10:02.548Z,5.18
2016-12-18T04:15:02.892Z,5.18
2016-12-18T04:20:02.321Z,5.17
2016-12-18T04:25:02.641Z,5.16
2016-12-18T04:30:03.034Z,5.15
2016-12-18T04:35:02.391Z,5.15
2016-12-18T04:40:02.752Z,5.15
2016-12-18T04:45:03.124Z,5.16
2016-12-18T04:50:02.464Z,5.18
2016-12-18T04:55:02.800Z,5.19
2016-12-18T05:00:02.211Z,5.19
2016-12-18T05:05:02.577Z,5.22
2016-12-18T05:10:02.969Z,5.23
2016-12-18T05:15:02.323Z,5.27
2016-12-18T05:20:02.750Z,5.31
2016-12-18T05:25:03.128Z,5.34
2016-12-18T05:30:02.467Z,5.34
2016-12-18T05:35:02.795Z,5.36
2016-12-18T05:40:03.153Z,5.37
2016-12-18T05:45:02.481Z,5.38
2016-12-18T05:50:02.914Z,5.39
2016-12-18T05:55:02.276Z,5.38
2016-12-18T06:00:02.650Z,5.39
2016-12-18T06:05:03.037Z,5.43
2016-12-18T06:10:02.383Z,5.43
2016-12-18T06:15:02.741Z,5.45
2016-12-18T06:20:02.203Z,5.46
2016-12-18T06:25:02.551Z,5.47
2016-12-18T06:30:02.882Z,5.47
2016-12-18T06:35:02.240Z,5.47
2016-12-18T06:40:02.599Z,5.48
2016-12-18T06:45:02.928Z,5.47
2016-12-18T06:50:02.270Z,5.46
2016-12-18T06:55:02.619Z,5.45
2016-12-18T07:00:03.026Z,5.43
2016-12-18T07:05:02.425Z,5.43
2016-12-18T07:10:02.812Z,5.43
2016-12-18T07:15:02.163Z,5.45
2016-12-18T07:20:02.614Z,5.45
2016-12-18T07:25:02.972Z,5.46
2016-12-18T07:30:02.344Z,5.43
2016-12-18T07:35:02.677Z,5.43
2016-12-18T07:40:03.053Z,5.41
2016-12-18T07:45:02.378Z,5.38
2016-12-18T07:50:02.725Z,5.37
2016-12-18T07:55:03.069Z,5.37
2016-12-18T08:00:02.424Z,5.38
2016-12-18T08:05:02.786Z,5.39
2016-12-18T08:10:03.168Z,5.39
2016-12-18T08:15:02.548Z,5.39
2016-12-18T08:20:03.007Z,5.39
2016-12-18T08:25:02.343Z,5.41
2016-12-18T08:30:02.730Z,5.45
2016-12-18T08:35:03.092Z,5.46
2016-12-18T08:40:02.406Z,5.49
2016-12-18T08:45:02.735Z,5.51
2016-12-18T08:50:03.058Z,5.51
2016-12-18T08:55:02.418Z,5.54
2016-12-18T09:00:02.780Z,5.59
2016-12-18T09:05:03.142Z,5.63
2016-12-18T09:10:02.468Z,5.66
2016-12-18T09:15:02.816Z,5.67
2016-12-18T09:20:02.275Z,5.69
2016-12-18T09:25:02.637Z,5.72
2016-12-18T09:30:02.988Z,5.75
2016-12-18T09:35:02.340Z,5.78
2016-12-18T09:40:02.679Z,5.77
2016-12-18T09:45:03.054Z,5.77
2016-12-18T09:50:02.414Z,5.79
2016-12-18T09:55:02.757Z,5.83
2016-12-18T10:00:03.093Z,5.86
2016-12-18T10:05:02.436Z,5.89
2016-12-18T10:10:02.803Z,5.86
2016-12-18T10:15:02.207Z,5.82
2016-12-18T10:20:02.646Z,5.79
2016-12-18T10:25:02.975Z,5.75
2016-12-18T10:30:02.324Z,5.71
2016-12-18T10:35:02.647Z,5.67
2016-12-18T10:40:02.969Z,5.68
2016-12-18T10:45:02.322Z,5.67
2016-12-18T10:50:02.692Z,5.65
2016-12-18T10:55:03.036Z,5.66
2016-12-18T11:00:02.375Z,5.68
2016-12-18T11:05:02.738Z,5.66
2016-12-18T11:10:03.099Z,5.66
2016-12-18T11:15:02.425Z,5.7
2016-12-18T11:20:02.841Z,5.78
2016-12-18T11:25:02.185Z,5.78
2016-12-18T11:30:02.496Z,5.77
2016-12-18T11:35:02.845Z,5.79
2016-12-18T11:40:02.187Z,5.8
2016-12-18T11:45:02.538Z,5.81
2016-12-18T11:50:02.916Z,5.81
2016-12-18T11:55:02.276Z,5.81
2016-12-18T12:00:02.639Z,5.78
2016-12-18T12:05:02.981Z,5.8
2016-12-18T12:10:02.366Z,5.79
2016-12-18T12:15:02.725Z,5.8
2016-12-18T12:20:02.174Z,5.78
2016-12-18T12:25:02.518Z,5.81
2016-12-18T12:30:02.886Z,5.8
2016-12-18T12:35:02.234Z,5.81
2016-12-18T12:40:02.526Z,5.81
2016-12-18T12:45:02.887Z,5.82
2016-12-18T12:50:02.295Z,5.84
2016-12-18T12:55:02.679Z,5.8
2016-12-18T13:00:03.014Z,5.81
2016-12-18T13:05:02.377Z,5.81
2016-12-18T13:10:02.712Z,5.86
2016-12-18T13:15:03.075Z,5.93
2016-12-18T13:20:02.491Z,5.96
2016-12-18T13:25:02.830Z,5.96
2016-12-18T13:30:02.193Z,5.95
2016-12-18T13:35:02.561Z,5.96
2016-12-18T13:40:02.909Z,5.94
2016-12-18T13:45:02.281Z,5.94
2016-12-18T13:50:02.653Z,5.92
2016-12-18T13:55:02.992Z,5.9
2016-12-18T14:00:02.347Z,5.89
2016-12-18T14:05:02.682Z,5.87
2016-12-18T14:10:03.048Z,5.86
2016-12-18T14:15:02.357Z,5.83
2016-12-18T14:20:02.818Z,5.83
2016-12-18T14:25:02.187Z,5.84
2016-12-18T14:30:02.559Z,5.83
2016-12-18T14:40:02.961Z,5.8
2016-12-18T14:45:02.355Z,5.82
2016-12-18T14:50:02.716Z,5.82
2016-12-18T14:55:03.106Z,5.81
2016-12-18T15:00:02.429Z,5.82
2016-12-18T15:05:02.774Z,5.84
2016-12-18T15:10:03.203Z,5.83
2016-12-18T15:15:02.575Z,5.86
2016-12-18T15:20:02.997Z,5.85
2016-12-18T15:25:02.337Z,5.86
2016-12-18T15:30:02.700Z,5.85
2016-12-18T15:35:03.035Z,5.89
2016-12-18T15:40:02.409Z,5.86
2016-12-18T15:45:02.762Z,5.87
2016-12-18T15:50:03.099Z,5.87
2016-12-18T15:55:02.455Z,5.9
2016-12-18T16:00:02.849Z,5.9
2016-12-18T16:05:02.212Z,5.9
2016-12-18T16:10:02.551Z,5.91
2016-12-18T16:15:03.012Z,5.92
2016-12-18T16:20:02.513Z,5.9
2016-12-18T16:25:02.853Z,5.92
2016-12-18T16:30:02.199Z,5.92
2016-12-18T16:35:02.546Z,5.9
2016-12-18T16:40:02.877Z,5.91
2016-12-18T16:45:02.247Z,5.93
2016-12-18T16:50:02.591Z,5.93
2016-12-18T16:55:02.962Z,5.95
2016-12-18T17:00:02.324Z,5.94
2016-12-18T17:05:02.698Z,5.94
2016-12-18T17:10:03.056Z,5.94
2016-12-18T17:15:02.455Z,5.95
2016-12-18T17:20:02.876Z,5.97
2016-12-18T17:25:02.245Z,5.97
2016-12-18T17:30:02.596Z,5.96
2016-12-18T17:35:02.940Z,5.95
2016-12-18T17:40:02.296Z,5.97
2016-12-18T17:45:02.644Z,5.97
2016-12-18T17:50:03.008Z,5.97
2016-12-18T17:55:02.385Z,5.99
2016-12-18T18:00:02.745Z,6
2016-12-18T18:05:03.110Z,5.99
2016-12-18T18:10:02.472Z,5.98
2016-12-18T18:15:02.818Z,6
2016-12-18T18:20:02.282Z,6
2016-12-18T18:25:02.625Z,6.01
2016-12-18T18:30:03.001Z,6.02
2016-12-18T18:35:02.356Z,6.01
2016-12-18T18:40:02.739Z,6.01
2016-12-18T18:45:02.318Z,6.01
2016-12-18T18:50:02.735Z,6.01
2016-12-18T18:55:03.108Z,6
2016-12-18T19:00:02.495Z,6.01
2016-12-18T19:05:02.862Z,6
2016-12-18T19:10:02.254Z,6.01
2016-12-18T19:15:02.648Z,6.02
2016-12-18T19:20:03.109Z,6.01
2016-12-18T19:25:02.447Z,6.01
2016-12-18T19:30:02.803Z,6.02
2016-12-18T19:35:02.170Z,6
2016-12-18T19:40:02.510Z,6.01
2016-12-18T19:45:02.864Z,6
2016-12-18T19:50:02.208Z,5.99
2016-12-18T19:55:02.615Z,5.98
2016-12-18T20:00:02.959Z,5.98
2016-12-18T20:05:02.426Z,5.97
2016-12-18T20:10:02.755Z,5.97
2016-12-18T20:15:03.097Z,5.98
2016-12-18T20:20:02.591Z,5.97
2016-12-18T20:25:02.947Z,5.96
2016-12-18T20:30:02.335Z,5.95
2016-12-18T20:35:02.682Z,5.95
2016-12-18T20:40:03.032Z,5.95
2016-12-18T20:45:02.382Z,5.96
2016-12-18T20:50:02.816Z,5.93
2016-12-18T20:55:02.214Z,5.93
2016-12-18T21:00:02.615Z,5.91
2016-12-18T21:05:02.955Z,5.89
2016-12-18T21:10:02.307Z,5.85
2016-12-18T21:15:02.693Z,5.86
2016-12-18T21:20:03.110Z,5.84
2016-12-18T21:25:02.444Z,5.82
2016-12-18T21:30:02.808Z,5.81
2016-12-18T21:35:02.192Z,5.8
2016-12-18T21:40:02.557Z,5.79
2016-12-18T21:45:03.484Z,5.77
2016-12-18T21:50:02.244Z,5.77
2016-12-18T21:55:02.616Z,5.75
2016-12-18T22:00:02.935Z,5.75
2016-12-18T22:05:02.274Z,5.74
2016-12-18T22:10:02.615Z,5.75
2016-12-18T22:15:02.972Z,5.74
2016-12-18T22:20:02.398Z,5.75
2016-12-18T22:25:02.750Z,5.75
2016-12-18T22:30:03.216Z,5.75
2016-12-18T22:35:02.541Z,5.72
2016-12-18T22:40:02.887Z,5.71
2016-12-18T22:45:02.241Z,5.71
2016-12-18T22:50:02.593Z,5.69
2016-12-18T22:55:02.920Z,5.69
2016-12-18T23:00:02.324Z,5.66
2016-12-18T23:05:02.691Z,5.66
2016-12-18T23:10:03.043Z,5.65
2016-12-18T23:15:02.397Z,5.65
2016-12-18T23:20:02.794Z,5.64
2016-12-18T23:25:03.147Z,5.64
2016-12-18T23:30:02.499Z,5.64
2016-12-18T23:35:02.858Z,5.63
2016-12-18T23:40:02.218Z,5.64
2016-12-18T23:45:02.569Z,5.59
2016-12-18T23:50:02.957Z,5.55
2016-12-18T23:55:02.315Z,5.52
